createdAt,value
2018-07-15T00:00:40.774Z,0
2018-07-15T00:01:42.449Z,0
2018-07-15T00:02:44.112Z,0
2018-07-15T00:03:45.782Z,0
2018-07-15T00:04:47.442Z,0
2018-07-15T00:05:49.103Z,0
2018-07-15T00:06:50.770Z,0
2018-07-15T00:07:52.425Z,0
2018-07-15T00:08:54.086Z,0
2018-07-15T00:09:55.765Z,0
2018-07-15T00:10:57.431Z,0
2018-07-15T00:11:59.105Z,0
2018-07-15T00:13:00.807Z,0
2018-07-15T00:14:02.467Z,0
2018-07-15T00:15:04.129Z,0
2018-07-15T00:16:05.829Z,0
2018-07-15T00:17:07.522Z,0
2018-07-15T00:18:09.195Z,0
2018-07-15T00:19:10.861Z,0
2018-07-15T00:20:13.520Z,0
2018-07-15T00:21:15.180Z,0
2018-07-15T00:22:16.834Z,0
2018-07-15T00:23:18.498Z,0
2018-07-15T00:24:20.999Z,0
2018-07-15T00:25:22.670Z,0
2018-07-15T00:26:24.334Z,0
2018-07-15T00:27:25.995Z,0
2018-07-15T00:28:27.665Z,0
2018-07-15T00:29:29.329Z,0
2018-07-15T00:30:30.999Z,0
2018-07-15T00:31:32.663Z,0
2018-07-15T00:32:34.342Z,0
2018-07-15T00:33:36.014Z,0
2018-07-15T00:34:37.678Z,0
2018-07-15T00:35:39.360Z,0
2018-07-15T00:36:41.032Z,0
2018-07-15T00:37:42.705Z,0
2018-07-15T00:38:44.377Z,0
2018-07-15T00:39:46.050Z,0
2018-07-15T00:40:47.706Z,0
2018-07-15T00:41:49.365Z,0
2018-07-15T00:42:51.044Z,0
2018-07-15T00:43:52.709Z,0
2018-07-15T00:44:54.373Z,0
2018-07-15T00:45:56.055Z,0
2018-07-15T00:46:57.727Z,0
2018-07-15T00:47:59.405Z,0
2018-07-15T00:49:01.063Z,0
2018-07-15T00:50:02.729Z,0
2018-07-15T00:51:04.396Z,0
2018-07-15T00:52:06.079Z,0
2018-07-15T00:53:07.756Z,0
2018-07-15T00:54:09.424Z,0
2018-07-15T00:55:11.092Z,0
2018-07-15T00:56:12.748Z,0
2018-07-15T00:57:14.416Z,0
2018-07-15T00:58:16.075Z,0
2018-07-15T00:59:17.748Z,0
2018-07-15T01:00:19.419Z,0
2018-07-15T01:01:21.087Z,0
2018-07-15T01:02:22.758Z,0
2018-07-15T01:03:24.417Z,0
2018-07-15T01:04:26.084Z,0
2018-07-15T01:05:27.743Z,0
2018-07-15T01:06:29.406Z,0
2018-07-15T01:07:31.082Z,0
2018-07-15T01:08:32.739Z,0
2018-07-15T01:09:34.408Z,0
2018-07-15T01:10:36.073Z,0
2018-07-15T01:11:37.733Z,0
2018-07-15T01:12:39.413Z,0
2018-07-15T01:13:41.078Z,0
2018-07-15T01:14:42.750Z,0
2018-07-15T01:15:44.416Z,0
2018-07-15T01:16:46.092Z,0
2018-07-15T01:17:47.745Z,0
2018-07-15T01:18:49.468Z,0
2018-07-15T01:19:51.071Z,0
2018-07-15T01:20:52.745Z,0
2018-07-15T01:21:54.401Z,0
2018-07-15T01:22:56.072Z,0
2018-07-15T01:23:57.745Z,0
2018-07-15T01:24:59.413Z,0
2018-07-15T01:26:01.076Z,0
2018-07-15T01:27:02.748Z,0
2018-07-15T01:28:04.417Z,0
2018-07-15T01:29:06.102Z,0
2018-07-15T01:30:07.781Z,0
2018-07-15T01:31:09.442Z,0
2018-07-15T01:32:11.108Z,0
2018-07-15T01:33:12.772Z,0
2018-07-15T01:34:14.438Z,0
2018-07-15T01:35:16.103Z,0
2018-07-15T01:36:17.764Z,0
2018-07-15T01:37:19.434Z,0
2018-07-15T01:38:21.106Z,0
2018-07-15T01:39:22.761Z,0
2018-07-15T01:40:24.422Z,0
2018-07-15T01:41:26.092Z,0
2018-07-15T01:42:27.744Z,0
2018-07-15T01:43:29.403Z,0
2018-07-15T01:44:31.074Z,0
2018-07-15T01:45:32.738Z,0
2018-07-15T01:46:34.399Z,0
2018-07-15T01:47:36.070Z,0
2018-07-15T01:48:37.735Z,0
2018-07-15T01:49:39.413Z,0
2018-07-15T01:50:41.078Z,0
2018-07-15T01:51:42.738Z,0
2018-07-15T01:52:44.399Z,0
2018-07-15T01:53:46.060Z,0
2018-07-15T01:54:47.722Z,0
2018-07-15T02:01:09.834Z,0
2018-07-15T02:02:11.497Z,0
2018-07-15T02:04:03.516Z,0
2018-07-15T02:05:05.170Z,0
2018-07-15T02:06:57.193Z,0
2018-07-15T02:07:58.852Z,0
2018-07-15T02:09:50.857Z,0
2018-07-15T02:10:52.520Z,0
2018-07-15T02:12:44.514Z,0
2018-07-15T02:13:46.178Z,0
2018-07-15T02:15:38.208Z,0
2018-07-15T02:16:39.873Z,0
2018-07-15T02:17:41.545Z,0
2018-07-15T02:18:43.219Z,0
2018-07-15T02:19:44.881Z,0
2018-07-15T02:20:46.543Z,0
2018-07-15T02:21:48.231Z,0
2018-07-15T02:22:49.900Z,0
2018-07-15T02:23:51.557Z,0
2018-07-15T02:24:53.218Z,0
2018-07-15T02:25:54.882Z,0
2018-07-15T02:26:56.550Z,0
2018-07-15T02:27:58.227Z,0
2018-07-15T02:28:59.899Z,0
2018-07-15T02:30:01.565Z,0
2018-07-15T02:31:03.254Z,0
2018-07-15T02:32:04.921Z,0
2018-07-15T02:33:06.630Z,0
2018-07-15T02:34:08.296Z,0
2018-07-15T02:35:09.956Z,0
2018-07-15T02:36:11.610Z,0
2018-07-15T02:37:13.277Z,0
2018-07-15T02:38:14.935Z,0
2018-07-15T02:39:16.591Z,0
2018-07-15T02:40:18.255Z,0
2018-07-15T02:41:19.926Z,0
2018-07-15T02:42:21.584Z,0
2018-07-15T02:43:23.244Z,0
2018-07-15T02:44:24.919Z,0
2018-07-15T02:45:26.577Z,0
2018-07-15T02:46:28.264Z,0
2018-07-15T02:47:29.925Z,0
2018-07-15T02:48:31.587Z,0
2018-07-15T02:49:33.255Z,0
2018-07-15T02:50:34.922Z,0
2018-07-15T02:51:36.594Z,0
2018-07-15T02:52:38.251Z,0
2018-07-15T02:53:39.912Z,0
2018-07-15T02:54:41.571Z,0
2018-07-15T02:55:43.249Z,0
2018-07-15T02:56:44.921Z,0
2018-07-15T02:57:46.584Z,0
2018-07-15T02:58:48.253Z,0
2018-07-15T02:59:49.906Z,0
2018-07-15T03:00:51.577Z,0
2018-07-15T03:01:53.233Z,0
2018-07-15T03:02:54.899Z,0
2018-07-15T03:03:56.569Z,0
2018-07-15T03:04:58.224Z,0
2018-07-15T03:05:59.897Z,0
2018-07-15T03:07:01.555Z,0
2018-07-15T03:08:03.219Z,0
2018-07-15T03:09:04.879Z,0
2018-07-15T03:10:06.573Z,0
2018-07-15T03:11:08.237Z,0
2018-07-15T03:12:09.904Z,0
2018-07-15T03:13:11.561Z,0
2018-07-15T03:14:13.225Z,0
2018-07-15T03:15:14.898Z,0
2018-07-15T03:16:16.558Z,5
2018-07-15T03:17:18.230Z,5
2018-07-15T03:18:19.856Z,5
2018-07-15T03:19:21.519Z,5
2018-07-15T03:20:23.189Z,5
2018-07-15T03:21:24.848Z,5
2018-07-15T03:22:26.506Z,5
2018-07-15T03:23:28.175Z,5
2018-07-15T03:24:29.838Z,10
2018-07-15T03:25:31.518Z,10
2018-07-15T03:26:33.196Z,10
2018-07-15T03:27:34.866Z,10
2018-07-15T03:28:36.530Z,10
2018-07-15T03:29:38.191Z,15
2018-07-15T03:30:39.862Z,15
2018-07-15T03:31:41.537Z,15
2018-07-15T03:32:43.200Z,15
2018-07-15T03:33:44.857Z,15
2018-07-15T03:34:46.525Z,20
2018-07-15T03:35:48.242Z,20
2018-07-15T03:36:49.900Z,20
2018-07-15T03:37:51.561Z,25
2018-07-15T03:38:53.238Z,25
2018-07-15T03:39:54.926Z,25
2018-07-15T03:40:56.576Z,25
2018-07-15T03:41:58.251Z,30
2018-07-15T03:42:59.922Z,30
2018-07-15T03:44:01.584Z,30
2018-07-15T03:45:03.255Z,35
2018-07-15T03:46:04.917Z,35
2018-07-15T03:47:06.614Z,35
2018-07-15T03:48:08.283Z,40
2018-07-15T03:49:09.949Z,40
2018-07-15T03:50:11.617Z,40
2018-07-15T03:51:13.288Z,45
2018-07-15T03:52:14.948Z,45
2018-07-15T03:53:16.687Z,45
2018-07-15T03:54:18.361Z,50
2018-07-15T03:55:20.029Z,50
2018-07-15T03:56:21.700Z,50
2018-07-15T03:57:23.392Z,55
2018-07-15T03:58:25.054Z,55
2018-07-15T03:59:26.721Z,60
2018-07-15T04:00:28.754Z,60
2018-07-15T04:01:30.413Z,60
2018-07-15T04:02:32.075Z,65
2018-07-15T04:03:33.746Z,65
2018-07-15T04:04:35.440Z,65
2018-07-15T04:05:37.113Z,70
2018-07-15T04:06:38.776Z,70
2018-07-15T04:07:40.442Z,70
2018-07-15T04:08:42.222Z,75
2018-07-15T04:09:43.736Z,75
2018-07-15T04:10:45.396Z,80
2018-07-15T04:11:47.059Z,80
2018-07-15T04:12:48.728Z,80
2018-07-15T04:13:50.400Z,85
2018-07-15T04:14:52.074Z,85
2018-07-15T04:15:53.745Z,85
2018-07-15T04:16:55.420Z,90
2018-07-15T04:17:57.093Z,90
2018-07-15T04:18:58.751Z,90
2018-07-15T04:20:00.434Z,95
2018-07-15T04:21:02.097Z,95
2018-07-15T04:22:03.767Z,100
2018-07-15T04:23:05.433Z,100
2018-07-15T04:24:07.101Z,100
2018-07-15T04:25:08.765Z,105
2018-07-15T04:26:10.430Z,105
2018-07-15T04:27:12.097Z,110
2018-07-15T04:28:13.820Z,110
2018-07-15T04:29:15.427Z,110
2018-07-15T04:30:17.091Z,115
2018-07-15T04:31:18.768Z,115
2018-07-15T04:32:20.440Z,115
2018-07-15T04:33:22.113Z,120
2018-07-15T04:34:23.824Z,120
2018-07-15T04:35:25.495Z,120
2018-07-15T04:36:27.174Z,125
2018-07-15T04:37:28.845Z,125
2018-07-15T04:38:30.518Z,125
2018-07-15T04:39:32.190Z,130
2018-07-15T04:40:33.859Z,140
2018-07-15T04:41:35.562Z,155
2018-07-15T04:42:37.197Z,170
2018-07-15T04:43:38.879Z,175
2018-07-15T04:44:40.553Z,185
2018-07-15T04:45:42.224Z,190
2018-07-15T04:46:43.894Z,190
2018-07-15T04:47:45.562Z,195
2018-07-15T04:48:47.224Z,200
2018-07-15T04:49:48.897Z,200
2018-07-15T04:50:50.561Z,210
2018-07-15T04:51:52.234Z,205
2018-07-15T04:52:53.907Z,215
2018-07-15T04:53:55.581Z,210
2018-07-15T04:54:57.252Z,215
2018-07-15T04:55:58.929Z,220
2018-07-15T04:57:00.599Z,220
2018-07-15T04:58:02.271Z,225
2018-07-15T04:59:03.947Z,230
2018-07-15T05:00:05.624Z,230
2018-07-15T05:01:07.332Z,235
2018-07-15T05:02:09.099Z,235
2018-07-15T05:03:10.642Z,240
2018-07-15T05:04:12.321Z,255
2018-07-15T05:05:13.982Z,250
2018-07-15T05:06:15.653Z,255
2018-07-15T05:07:17.338Z,260
2018-07-15T05:08:19.012Z,265
2018-07-15T05:09:20.678Z,265
2018-07-15T05:10:22.359Z,265
2018-07-15T05:11:24.093Z,270
2018-07-15T05:12:25.679Z,275
2018-07-15T05:13:27.358Z,275
2018-07-15T05:14:29.038Z,275
2018-07-15T05:15:30.721Z,280
2018-07-15T05:16:32.387Z,280
2018-07-15T05:17:34.143Z,280
2018-07-15T05:18:35.813Z,280
2018-07-15T05:19:37.495Z,285
2018-07-15T05:20:39.163Z,285
2018-07-15T05:21:40.836Z,285
2018-07-15T05:22:42.515Z,290
2018-07-15T05:23:44.180Z,290
2018-07-15T05:24:45.849Z,290
2018-07-15T05:25:47.529Z,290
2018-07-15T05:26:49.209Z,300
2018-07-15T05:27:50.883Z,300
2018-07-15T05:28:52.563Z,295
2018-07-15T05:29:54.238Z,295
2018-07-15T05:30:55.909Z,305
2018-07-15T05:31:57.585Z,305
2018-07-15T05:32:59.270Z,310
2018-07-15T05:34:00.940Z,310
2018-07-15T05:35:02.653Z,315
2018-07-15T05:36:04.257Z,315
2018-07-15T05:37:05.959Z,315
2018-07-15T05:38:07.627Z,320
2018-07-15T05:39:09.305Z,325
2018-07-15T05:40:10.988Z,325
2018-07-15T05:41:12.667Z,325
2018-07-15T05:42:14.334Z,320
2018-07-15T05:43:16.005Z,330
2018-07-15T05:44:17.697Z,335
2018-07-15T05:45:19.365Z,335
2018-07-15T05:46:21.031Z,335
2018-07-15T05:47:22.709Z,340
2018-07-15T05:48:24.379Z,340
2018-07-15T05:49:26.058Z,330
2018-07-15T05:50:27.737Z,340
2018-07-15T05:51:29.413Z,345
2018-07-15T05:52:31.096Z,345
2018-07-15T05:53:32.770Z,350
2018-07-15T05:54:34.443Z,350
2018-07-15T05:55:36.116Z,355
2018-07-15T06:01:58.507Z,370
2018-07-15T06:03:00.178Z,370
2018-07-15T06:04:52.083Z,370
2018-07-15T06:05:53.750Z,375
2018-07-15T06:07:45.948Z,380
2018-07-15T06:08:47.651Z,380
2018-07-15T06:10:39.615Z,390
2018-07-15T06:11:41.261Z,390
2018-07-15T06:13:33.196Z,390
2018-07-15T06:14:34.915Z,395
2018-07-15T06:15:36.613Z,395
2018-07-15T06:16:38.283Z,400
2018-07-15T06:17:39.957Z,395
2018-07-15T06:18:41.645Z,410
2018-07-15T06:19:43.311Z,410
2018-07-15T06:20:44.987Z,405
2018-07-15T06:21:46.664Z,410
2018-07-15T06:22:48.429Z,420
2018-07-15T06:23:50.017Z,425
2018-07-15T06:24:51.694Z,415
2018-07-15T06:25:53.402Z,435
2018-07-15T06:26:55.088Z,435
2018-07-15T06:27:56.772Z,445
2018-07-15T06:28:58.447Z,450
2018-07-15T06:30:00.113Z,445
2018-07-15T06:31:01.791Z,450
2018-07-15T06:32:03.474Z,460
2018-07-15T06:33:05.153Z,455
2018-07-15T06:34:06.872Z,460
2018-07-15T06:35:08.551Z,460
2018-07-15T06:36:10.235Z,465
2018-07-15T06:37:11.917Z,460
2018-07-15T06:38:13.601Z,475
2018-07-15T06:39:15.274Z,475
2018-07-15T06:40:16.952Z,485
2018-07-15T06:41:18.636Z,475
2018-07-15T06:42:20.329Z,480
2018-07-15T06:43:22.004Z,490
2018-07-15T06:44:23.683Z,490
2018-07-15T06:45:25.365Z,495
2018-07-15T06:46:27.052Z,500
2018-07-15T06:47:28.728Z,505
2018-07-15T06:48:30.401Z,510
2018-07-15T06:49:32.081Z,515
2018-07-15T06:50:33.760Z,525
2018-07-15T06:51:35.438Z,525
2018-07-15T06:52:37.128Z,530
2018-07-15T06:53:38.806Z,535
2018-07-15T06:54:40.490Z,535
2018-07-15T06:55:42.172Z,545
2018-07-15T06:56:43.852Z,545
2018-07-15T06:57:45.531Z,550
2018-07-15T06:58:47.212Z,555
2018-07-15T06:59:48.887Z,555
2018-07-15T07:00:50.608Z,560
2018-07-15T07:01:52.305Z,565
2018-07-15T07:02:53.983Z,570
2018-07-15T07:03:55.659Z,580
2018-07-15T07:04:57.341Z,585
2018-07-15T07:05:59.032Z,600
2018-07-15T07:07:00.714Z,600
2018-07-15T07:08:02.401Z,610
2018-07-15T07:09:04.088Z,625
2018-07-15T07:10:05.832Z,630
2018-07-15T07:11:07.478Z,655
2018-07-15T07:12:09.161Z,675
2018-07-15T07:13:10.842Z,695
2018-07-15T07:14:12.553Z,710
2018-07-15T07:15:14.208Z,730
2018-07-15T07:16:15.897Z,755
2018-07-15T07:17:17.600Z,785
2018-07-15T07:18:19.272Z,815
2018-07-15T07:19:20.950Z,865
2018-07-15T07:20:22.675Z,915
2018-07-15T07:21:24.332Z,975
2018-07-15T07:22:26.013Z,1045
2018-07-15T07:23:27.700Z,1110
2018-07-15T07:24:29.396Z,1190
2018-07-15T07:25:31.080Z,1315
2018-07-15T07:26:32.774Z,1490
2018-07-15T07:27:34.448Z,1685
2018-07-15T07:28:36.151Z,2040
2018-07-15T07:29:37.865Z,2365
2018-07-15T07:30:39.551Z,2535
2018-07-15T07:31:41.249Z,2665
2018-07-15T07:32:42.936Z,2730
2018-07-15T07:33:44.633Z,2875
2018-07-15T07:34:46.307Z,3065
2018-07-15T07:35:47.996Z,3280
2018-07-15T07:36:49.684Z,3385
2018-07-15T07:37:51.370Z,3370
2018-07-15T07:38:53.066Z,3305
2018-07-15T07:39:54.749Z,3265
2018-07-15T07:40:56.435Z,3245
2018-07-15T07:41:58.123Z,3215
2018-07-15T07:42:59.799Z,3085
2018-07-15T07:44:01.492Z,2985
2018-07-15T07:45:03.193Z,2995
2018-07-15T07:46:04.912Z,2925
2018-07-15T07:47:06.638Z,2685
2018-07-15T07:48:08.329Z,2565
2018-07-15T07:49:10.026Z,2505
2018-07-15T07:50:11.707Z,2365
2018-07-15T07:51:13.397Z,2265
2018-07-15T07:52:15.088Z,2170
2018-07-15T07:53:16.780Z,2025
2018-07-15T07:54:18.458Z,2000
2018-07-15T07:55:20.162Z,2000
2018-07-15T07:56:21.867Z,1990
2018-07-15T07:57:23.560Z,1940
2018-07-15T07:58:25.256Z,1855
2018-07-15T07:59:26.966Z,1800
2018-07-15T08:00:28.710Z,1795
2018-07-15T08:01:30.400Z,1800
2018-07-15T08:02:32.088Z,1775
2018-07-15T08:03:33.848Z,1745
2018-07-15T08:04:35.565Z,1765
2018-07-15T08:05:37.261Z,1745
2018-07-15T08:06:38.939Z,1720
2018-07-15T08:07:40.723Z,1640
2018-07-15T08:08:42.400Z,1640
2018-07-15T08:09:44.092Z,1665
2018-07-15T08:10:45.768Z,1705
2018-07-15T08:11:47.463Z,1745
2018-07-15T08:12:49.158Z,1710
2018-07-15T08:13:50.844Z,1695
2018-07-15T08:14:52.550Z,1710
2018-07-15T08:15:54.257Z,1680
2018-07-15T08:16:55.942Z,1590
2018-07-15T08:17:57.631Z,1580
2018-07-15T08:18:59.437Z,1580
2018-07-15T08:20:01.125Z,1590
2018-07-15T08:21:02.817Z,1545
2018-07-15T08:22:04.505Z,1595
2018-07-15T08:23:06.224Z,1575
2018-07-15T08:24:07.953Z,1530
2018-07-15T08:25:09.667Z,1530
2018-07-15T08:26:11.386Z,1540
2018-07-15T08:27:13.456Z,1590
2018-07-15T08:28:15.164Z,1705
2018-07-15T08:29:16.831Z,1760
2018-07-15T08:30:18.529Z,1745
2018-07-15T08:31:20.216Z,1735
2018-07-15T08:32:21.901Z,1700
2018-07-15T08:33:23.843Z,1640
2018-07-15T08:34:25.582Z,1660
2018-07-15T08:35:27.361Z,1700
2018-07-15T08:36:29.145Z,1710
2018-07-15T08:37:30.836Z,1735
2018-07-15T08:38:32.555Z,1760
2018-07-15T08:39:34.243Z,1785
2018-07-15T08:40:36.074Z,1785
2018-07-15T08:41:37.726Z,1820
2018-07-15T08:42:39.418Z,1815
2018-07-15T08:43:41.155Z,1810
2018-07-15T08:44:42.905Z,1825
2018-07-15T08:45:44.629Z,1855
2018-07-15T08:46:46.320Z,1985
2018-07-15T08:47:48.018Z,2160
2018-07-15T08:48:49.719Z,2335
2018-07-15T08:49:51.413Z,2365
2018-07-15T08:50:53.102Z,2245
2018-07-15T08:51:54.792Z,2205
2018-07-15T08:52:56.487Z,2250
2018-07-15T08:53:58.165Z,2235
2018-07-15T08:54:59.853Z,2195
2018-07-15T08:56:01.547Z,2120
2018-07-15T08:57:03.241Z,2030
2018-07-15T08:58:04.935Z,1940
2018-07-15T08:59:06.661Z,1900
2018-07-15T09:00:08.346Z,1915
2018-07-15T09:01:10.069Z,1950
2018-07-15T09:02:11.767Z,1955
2018-07-15T09:03:13.477Z,1960
2018-07-15T09:04:15.129Z,1970
2018-07-15T09:05:16.836Z,1975
2018-07-15T09:06:18.584Z,1985
2018-07-15T09:07:20.291Z,2020
2018-07-15T09:08:21.990Z,2045
2018-07-15T09:09:23.684Z,2075
2018-07-15T09:10:25.382Z,2095
2018-07-15T09:11:27.123Z,2110
2018-07-15T09:12:28.815Z,2150
2018-07-15T09:13:30.504Z,2155
2018-07-15T09:14:32.196Z,2170
2018-07-15T09:15:33.880Z,2165
2018-07-15T09:16:35.579Z,2170
2018-07-15T09:17:37.271Z,2165
2018-07-15T09:18:38.972Z,2175
2018-07-15T09:19:40.663Z,1970
2018-07-15T09:20:42.366Z,1975
2018-07-15T09:21:44.053Z,2015
2018-07-15T09:22:45.728Z,2235
2018-07-15T09:23:47.422Z,2215
2018-07-15T09:24:49.136Z,2200
2018-07-15T09:25:50.842Z,2205
2018-07-15T09:26:52.535Z,2165
2018-07-15T09:27:54.280Z,2120
2018-07-15T09:28:55.917Z,2105
2018-07-15T09:29:57.624Z,2090
2018-07-15T09:30:59.579Z,2075
2018-07-15T09:32:01.287Z,2060
2018-07-15T09:33:03.002Z,2060
2018-07-15T09:34:04.776Z,2025
2018-07-15T09:35:06.504Z,2005
2018-07-15T09:36:08.599Z,1970
2018-07-15T09:37:10.279Z,1940
2018-07-15T09:38:12.002Z,1910
2018-07-15T09:39:13.701Z,1865
2018-07-15T09:40:15.412Z,1835
2018-07-15T09:41:17.293Z,1795
2018-07-15T09:42:18.994Z,1755
2018-07-15T09:43:20.680Z,1730
2018-07-15T09:44:22.377Z,1720
2018-07-15T09:45:24.122Z,1695
2018-07-15T09:46:25.838Z,1665
2018-07-15T09:47:27.520Z,1630
2018-07-15T09:48:29.256Z,1595
2018-07-15T09:49:31.010Z,1580
2018-07-15T09:50:32.721Z,1580
2018-07-15T09:51:34.419Z,1585
2018-07-15T09:52:36.116Z,1595
2018-07-15T09:53:37.803Z,1570
2018-07-15T09:54:39.500Z,1585
2018-07-15T10:01:24.333Z,3665
2018-07-15T10:02:26.769Z,3830
2018-07-15T10:03:29.906Z,3780
2018-07-15T10:04:31.479Z,3865
2018-07-15T10:05:33.159Z,3635
2018-07-15T10:06:34.909Z,3550
2018-07-15T10:07:36.655Z,3780
2018-07-15T10:08:38.417Z,3925
2018-07-15T10:09:40.591Z,3945
2018-07-15T10:10:42.394Z,3845
2018-07-15T10:11:44.190Z,3810
2018-07-15T10:12:46.475Z,3640
2018-07-15T10:13:48.653Z,3480
2018-07-15T10:14:50.544Z,3355
2018-07-15T10:15:52.330Z,3360
2018-07-15T10:16:54.466Z,3535
2018-07-15T10:17:56.204Z,3640
2018-07-15T10:18:58.065Z,3775
2018-07-15T10:19:59.894Z,3720
2018-07-15T10:21:03.610Z,3775
2018-07-15T10:22:06.581Z,3845
2018-07-15T10:23:08.639Z,3830
2018-07-15T10:24:10.458Z,3770
2018-07-15T10:25:12.285Z,3960
2018-07-15T10:26:14.111Z,3900
2018-07-15T10:27:16.324Z,3995
2018-07-15T10:28:18.146Z,3965
2018-07-15T10:29:20.287Z,3990
2018-07-15T10:30:22.095Z,4115
2018-07-15T10:31:23.910Z,4105
2018-07-15T10:32:25.704Z,4150
2018-07-15T10:33:28.364Z,4325
2018-07-15T10:34:30.171Z,4155
2018-07-15T10:35:31.978Z,4030
2018-07-15T10:36:33.712Z,4080
2018-07-15T10:37:35.494Z,4090
2018-07-15T10:38:37.273Z,4230
2018-07-15T10:39:39.180Z,3695
2018-07-15T10:40:40.968Z,4405
2018-07-15T10:41:42.751Z,4490
2018-07-15T10:42:44.544Z,4350
2018-07-15T10:43:46.783Z,1080
2018-07-15T10:44:48.590Z,2185
2018-07-15T10:45:50.365Z,685
2018-07-15T10:46:52.172Z,605
2018-07-15T10:47:54.070Z,600
2018-07-15T10:48:55.877Z,600
2018-07-15T10:49:57.636Z,585
2018-07-15T10:50:59.420Z,580
2018-07-15T10:52:02.397Z,545
2018-07-15T10:53:04.059Z,545
2018-07-15T10:54:06.502Z,535
2018-07-15T10:55:08.898Z,560
2018-07-15T10:56:10.671Z,530
2018-07-15T10:57:12.519Z,520
2018-07-15T10:58:14.794Z,520
2018-07-15T10:59:16.320Z,555
2018-07-15T11:00:18.102Z,645
2018-07-15T11:01:19.944Z,600
2018-07-15T11:02:21.743Z,3005
2018-07-15T11:03:23.523Z,4060
2018-07-15T11:04:25.314Z,1190
2018-07-15T11:05:27.089Z,4035
2018-07-15T11:06:28.995Z,4045
2018-07-15T11:07:30.683Z,4235
2018-07-15T11:08:32.464Z,4060
2018-07-15T11:09:34.259Z,4225
2018-07-15T11:10:36.089Z,4295
2018-07-15T11:11:37.887Z,4265
2018-07-15T11:12:39.681Z,4255
2018-07-15T11:13:41.458Z,4100
2018-07-15T11:14:43.270Z,4165
2018-07-15T11:15:45.037Z,4240
2018-07-15T11:16:46.815Z,4390
2018-07-15T11:17:48.562Z,4340
2018-07-15T11:18:50.333Z,4115
2018-07-15T11:19:52.098Z,4220
2018-07-15T11:20:53.855Z,4350
2018-07-15T11:21:56.119Z,4235
2018-07-15T11:22:57.906Z,4300
2018-07-15T11:23:59.727Z,4430
2018-07-15T11:25:01.604Z,4360
2018-07-15T11:26:03.412Z,4300
2018-07-15T11:27:05.130Z,790
2018-07-15T11:28:06.970Z,4315
2018-07-15T11:29:08.776Z,4100
2018-07-15T11:30:10.576Z,4215
2018-07-15T11:31:12.413Z,4470
2018-07-15T11:32:14.147Z,4470
2018-07-15T11:33:16.174Z,4475
2018-07-15T11:34:18.007Z,4495
2018-07-15T11:35:19.786Z,4370
2018-07-15T11:36:21.555Z,3810
2018-07-15T11:37:23.374Z,785
2018-07-15T11:38:25.194Z,830
2018-07-15T11:39:26.981Z,820
2018-07-15T11:40:28.774Z,740
2018-07-15T11:41:30.537Z,820
2018-07-15T11:42:32.339Z,2015
2018-07-15T11:43:34.150Z,785
2018-07-15T11:44:35.897Z,680
2018-07-15T11:45:37.837Z,625
2018-07-15T11:46:39.690Z,615
2018-07-15T11:47:41.539Z,595
2018-07-15T11:48:43.301Z,580
2018-07-15T11:49:45.165Z,545
2018-07-15T11:50:46.998Z,525
2018-07-15T11:51:48.878Z,510
2018-07-15T11:52:50.686Z,680
2018-07-15T11:53:52.459Z,625
2018-07-15T11:54:54.260Z,595
2018-07-15T11:55:56.077Z,590
2018-07-15T11:56:57.818Z,560
2018-07-15T11:57:59.720Z,580
2018-07-15T11:59:01.457Z,550
2018-07-15T12:00:03.233Z,515
2018-07-15T12:01:04.952Z,500
2018-07-15T12:02:06.679Z,500
2018-07-15T12:03:08.449Z,3890
2018-07-15T12:04:10.197Z,3980
2018-07-15T12:05:12.743Z,690
2018-07-15T12:06:14.522Z,640
2018-07-15T12:07:16.262Z,670
2018-07-15T12:08:18.057Z,630
2018-07-15T12:09:19.841Z,985
2018-07-15T12:10:21.599Z,615
2018-07-15T12:11:23.417Z,540
2018-07-15T12:12:25.189Z,555
2018-07-15T12:13:26.960Z,540
2018-07-15T12:14:28.841Z,570
2018-07-15T12:15:30.647Z,580
2018-07-15T12:16:32.423Z,595
2018-07-15T12:17:34.214Z,615
2018-07-15T12:18:35.983Z,665
2018-07-15T12:19:37.747Z,775
2018-07-15T12:20:39.474Z,950
2018-07-15T12:21:41.323Z,3875
2018-07-15T12:22:43.063Z,3825
2018-07-15T12:23:44.861Z,3830
2018-07-15T12:24:46.675Z,3945
2018-07-15T12:25:48.473Z,3610
2018-07-15T12:26:50.261Z,3990
2018-07-15T12:27:52.037Z,2100
2018-07-15T12:28:53.828Z,3390
2018-07-15T12:29:55.649Z,4130
2018-07-15T12:30:57.410Z,1285
2018-07-15T12:31:59.292Z,955
2018-07-15T12:33:01.215Z,2675
2018-07-15T12:34:03.395Z,1450
2018-07-15T12:35:05.201Z,1030
2018-07-15T12:36:07.080Z,1970
2018-07-15T12:37:08.761Z,2015
2018-07-15T12:38:10.649Z,1285
2018-07-15T12:39:12.768Z,2260
2018-07-15T12:40:14.711Z,1910
2018-07-15T12:41:16.780Z,1020
2018-07-15T12:42:18.840Z,805
2018-07-15T12:43:20.703Z,710
2018-07-15T12:44:22.450Z,645
2018-07-15T12:45:24.291Z,655
2018-07-15T12:46:26.627Z,650
2018-07-15T12:47:28.454Z,1845
2018-07-15T12:48:30.250Z,3525
2018-07-15T12:49:32.026Z,3520
2018-07-15T12:50:33.813Z,3520
2018-07-15T12:51:35.631Z,3400
2018-07-15T12:52:37.434Z,3395
2018-07-15T12:53:39.216Z,3570
2018-07-15T12:54:41.031Z,3530
2018-07-15T12:55:42.940Z,3400
2018-07-15T12:56:44.716Z,3490
2018-07-15T12:57:46.570Z,2750
2018-07-15T12:58:48.372Z,1245
2018-07-15T12:59:50.184Z,3045
2018-07-15T13:00:52.000Z,2455
2018-07-15T13:01:53.778Z,895
2018-07-15T13:02:55.613Z,860
2018-07-15T13:03:57.440Z,825
2018-07-15T13:04:59.254Z,775
2018-07-15T13:06:01.024Z,820
2018-07-15T13:07:02.862Z,860
2018-07-15T13:08:04.680Z,3270
2018-07-15T13:09:06.507Z,3205
2018-07-15T13:10:08.288Z,3215
2018-07-15T13:11:10.091Z,3285
2018-07-15T13:12:11.872Z,3235
2018-07-15T13:13:13.664Z,3395
2018-07-15T13:14:15.551Z,3370
2018-07-15T13:15:17.296Z,3200
2018-07-15T13:16:19.141Z,3245
2018-07-15T13:17:20.932Z,3265
2018-07-15T13:18:22.733Z,3250
2018-07-15T13:19:24.516Z,3130
2018-07-15T13:20:26.282Z,2960
2018-07-15T13:21:28.137Z,3095
2018-07-15T13:22:29.983Z,3095
2018-07-15T13:23:31.814Z,3065
2018-07-15T13:24:33.633Z,3040
2018-07-15T13:25:35.460Z,3035
2018-07-15T13:26:37.248Z,3150
2018-07-15T13:27:39.079Z,3135
2018-07-15T13:28:40.849Z,3150
2018-07-15T13:29:42.627Z,3190
2018-07-15T13:30:44.450Z,3140
2018-07-15T13:31:46.260Z,3075
2018-07-15T13:32:48.113Z,3005
2018-07-15T13:33:49.944Z,3080
2018-07-15T13:34:51.773Z,3205
2018-07-15T13:35:53.575Z,3215
2018-07-15T13:36:55.451Z,3185
2018-07-15T13:37:57.336Z,3250
2018-07-15T13:38:59.181Z,3140
2018-07-15T13:40:01.051Z,3145
2018-07-15T13:41:02.868Z,3175
2018-07-15T13:42:04.697Z,3200
2018-07-15T13:43:06.589Z,3155
2018-07-15T13:44:08.322Z,3105
2018-07-15T13:45:10.090Z,3055
2018-07-15T13:46:11.812Z,2965
2018-07-15T13:47:13.541Z,2995
2018-07-15T13:48:15.338Z,2980
2018-07-15T13:49:17.098Z,2980
2018-07-15T13:50:18.825Z,2995
2018-07-15T13:51:20.572Z,2965
2018-07-15T13:52:22.296Z,2845
2018-07-15T13:53:24.005Z,2805
2018-07-15T13:54:25.714Z,2790
2018-07-15T14:00:59.791Z,2685
2018-07-15T14:02:01.481Z,2690
2018-07-15T14:03:03.179Z,2680
2018-07-15T14:04:04.890Z,2690
2018-07-15T14:05:06.610Z,2730
2018-07-15T14:06:08.297Z,2765
2018-07-15T14:07:09.992Z,2790
2018-07-15T14:08:11.693Z,2785
2018-07-15T14:09:13.404Z,2760
2018-07-15T14:10:15.127Z,2625
2018-07-15T14:11:16.806Z,2595
2018-07-15T14:12:18.493Z,2775
2018-07-15T14:13:20.193Z,2665
2018-07-15T14:14:21.900Z,2550
2018-07-15T14:15:23.599Z,2575
2018-07-15T14:16:25.288Z,2720
2018-07-15T14:17:26.973Z,2655
2018-07-15T14:18:28.695Z,2755
2018-07-15T14:19:30.503Z,2620
2018-07-15T14:20:32.199Z,2580
2018-07-15T14:21:33.915Z,2670
2018-07-15T14:22:35.612Z,2630
2018-07-15T14:23:37.295Z,2615
2018-07-15T14:24:39.014Z,2605
2018-07-15T14:25:40.703Z,2745
2018-07-15T14:26:42.389Z,2800
2018-07-15T14:27:44.093Z,2690
2018-07-15T14:28:45.793Z,2635
2018-07-15T14:29:47.485Z,2595
2018-07-15T14:30:49.175Z,2660
2018-07-15T14:31:50.878Z,2705
2018-07-15T14:32:52.578Z,2725
2018-07-15T14:33:54.267Z,2735
2018-07-15T14:34:55.972Z,2635
2018-07-15T14:35:57.712Z,2695
2018-07-15T14:36:59.423Z,2660
2018-07-15T14:38:01.261Z,2570
2018-07-15T14:39:02.855Z,2555
2018-07-15T14:40:04.549Z,2570
2018-07-15T14:41:06.333Z,2630
2018-07-15T14:42:08.024Z,2665